sensor_id;sensor_type;location;lat;lon;timestamp;temperature;humidity
75436;DHT22;64014;53.432;14.534;2022-12-20T00:01:00;3.80;85.80
75436;DHT22;64014;53.432;14.534;2022-12-20T00:03:25;3.70;85.80
75436;DHT22;64014;53.432;14.534;2022-12-20T00:05:51;3.70;85.80
75436;DHT22;64014;53.432;14.534;2022-12-20T00:08:17;3.70;85.80
75436;DHT22;64014;53.432;14.534;2022-12-20T00:10:44;3.70;85.70
75436;DHT22;64014;53.432;14.534;2022-12-20T00:13:11;3.70;85.70
75436;DHT22;64014;53.432;14.534;2022-12-20T00:15:37;3.70;85.70
75436;DHT22;64014;53.432;14.534;2022-12-20T00:18:03;3.70;85.60
75436;DHT22;64014;53.432;14.534;2022-12-20T00:20:29;3.70;85.50
75436;DHT22;64014;53.432;14.534;2022-12-20T00:22:55;3.70;85.50
75436;DHT22;64014;53.432;14.534;2022-12-20T00:25:21;3.70;85.50
75436;DHT22;64014;53.432;14.534;2022-12-20T00:27:47;3.70;85.40
75436;DHT22;64014;53.432;14.534;2022-12-20T00:30:13;3.80;85.30
75436;DHT22;64014;53.432;14.534;2022-12-20T00:32:40;3.80;85.30
75436;DHT22;64014;53.432;14.534;2022-12-20T00:35:06;3.70;85.20
75436;DHT22;64014;53.432;14.534;2022-12-20T00:37:32;3.70;85.20
75436;DHT22;64014;53.432;14.534;2022-12-20T00:39:58;3.70;85.30
75436;DHT22;64014;53.432;14.534;2022-12-20T00:42:23;3.70;85.40
75436;DHT22;64014;53.432;14.534;2022-12-20T00:44:49;3.70;85.40
75436;DHT22;64014;53.432;14.534;2022-12-20T00:47:15;3.70;85.20
75436;DHT22;64014;53.432;14.534;2022-12-20T00:49:41;3.70;85.20
75436;DHT22;64014;53.432;14.534;2022-12-20T00:52:06;3.70;85.10
75436;DHT22;64014;53.432;14.534;2022-12-20T00:54:32;3.80;85.00
75436;DHT22;64014;53.432;14.534;2022-12-20T00:56:58;3.90;84.90
75436;DHT22;64014;53.432;14.534;2022-12-20T00:59:24;3.80;84.70
75436;DHT22;64014;53.432;14.534;2022-12-20T01:01:50;3.80;84.70
75436;DHT22;64014;53.432;14.534;2022-12-20T01:04:16;3.80;84.70
75436;DHT22;64014;53.432;14.534;2022-12-20T01:06:41;3.80;84.70
75436;DHT22;64014;53.432;14.534;2022-12-20T01:09:08;3.70;84.70
75436;DHT22;64014;53.432;14.534;2022-12-20T01:11:35;3.70;84.70
75436;DHT22;64014;53.432;14.534;2022-12-20T01:14:15;3.70;84.70
75436;DHT22;64014;53.432;14.534;2022-12-20T01:16:45;3.70;84.70
75436;DHT22;64014;53.432;14.534;2022-12-20T01:19:14;3.70;84.70
75436;DHT22;64014;53.432;14.534;2022-12-20T01:21:41;3.70;84.60
75436;DHT22;64014;53.432;14.534;2022-12-20T01:24:16;3.70;84.70
75436;DHT22;64014;53.432;14.534;2022-12-20T01:26:44;3.70;84.70
75436;DHT22;64014;53.432;14.534;2022-12-20T01:29:10;3.60;84.70
75436;DHT22;64014;53.432;14.534;2022-12-20T01:31:36;3.70;84.70
75436;DHT22;64014;53.432;14.534;2022-12-20T01:34:02;3.70;84.70
75436;DHT22;64014;53.432;14.534;2022-12-20T01:36:30;3.70;84.60
75436;DHT22;64014;53.432;14.534;2022-12-20T01:39:06;3.60;84.70
75436;DHT22;64014;53.432;14.534;2022-12-20T01:41:34;3.70;84.70
75436;DHT22;64014;53.432;14.534;2022-12-20T01:46:50;3.70;84.50
75436;DHT22;64014;53.432;14.534;2022-12-20T01:51:51;3.70;84.30
75436;DHT22;64014;53.432;14.534;2022-12-20T01:54:54;3.70;84.30
75436;DHT22;64014;53.432;14.534;2022-12-20T01:57:17;3.70;84.30
75436;DHT22;64014;53.432;14.534;2022-12-20T01:59:46;3.70;84.30
75436;DHT22;64014;53.432;14.534;2022-12-20T02:02:13;3.60;84.40
75436;DHT22;64014;53.432;14.534;2022-12-20T02:04:39;3.70;84.40
75436;DHT22;64014;53.432;14.534;2022-12-20T02:07:06;3.60;84.50
75436;DHT22;64014;53.432;14.534;2022-12-20T02:09:33;3.60;84.50
75436;DHT22;64014;53.432;14.534;2022-12-20T02:12:19;3.60;84.50
75436;DHT22;64014;53.432;14.534;2022-12-20T02:20:20;3.40;85.00
75436;DHT22;64014;53.432;14.534;2022-12-20T02:31:30;3.30;85.10
75436;DHT22;64014;53.432;14.534;2022-12-20T02:33:58;3.40;85.10
75436;DHT22;64014;53.432;14.534;2022-12-20T02:36:24;3.30;85.10
75436;DHT22;64014;53.432;14.534;2022-12-20T02:38:51;3.30;85.10
75436;DHT22;64014;53.432;14.534;2022-12-20T02:41:24;3.30;85.10
75436;DHT22;64014;53.432;14.534;2022-12-20T02:44:00;3.30;85.10
75436;DHT22;64014;53.432;14.534;2022-12-20T02:46:46;3.30;85.10
75436;DHT22;64014;53.432;14.534;2022-12-20T02:49:16;3.30;85.20
75436;DHT22;64014;53.432;14.534;2022-12-20T02:51:45;3.30;85.30
75436;DHT22;64014;53.432;14.534;2022-12-20T02:54:12;3.30;85.20
75436;DHT22;64014;53.432;14.534;2022-12-20T02:56:46;3.30;85.10
75436;DHT22;64014;53.432;14.534;2022-12-20T02:59:19;3.30;85.00
75436;DHT22;64014;53.432;14.534;2022-12-20T03:01:51;3.30;84.80
75436;DHT22;64014;53.432;14.534;2022-12-20T03:04:19;3.30;84.70
75436;DHT22;64014;53.432;14.534;2022-12-20T03:09:21;3.30;84.70
75436;DHT22;64014;53.432;14.534;2022-12-20T03:11:47;3.30;84.70
75436;DHT22;64014;53.432;14.534;2022-12-20T03:14:12;3.30;84.70
75436;DHT22;64014;53.432;14.534;2022-12-20T03:16:38;3.30;84.80
75436;DHT22;64014;53.432;14.534;2022-12-20T03:19:04;3.30;84.90
75436;DHT22;64014;53.432;14.534;2022-12-20T03:21:30;3.30;84.90
75436;DHT22;64014;53.432;14.534;2022-12-20T03:23:55;3.30;84.80
75436;DHT22;64014;53.432;14.534;2022-12-20T03:26:21;3.30;84.80
75436;DHT22;64014;53.432;14.534;2022-12-20T03:28:47;3.30;84.70
75436;DHT22;64014;53.432;14.534;2022-12-20T03:31:13;3.40;84.60
75436;DHT22;64014;53.432;14.534;2022-12-20T03:33:38;3.40;84.60
75436;DHT22;64014;53.432;14.534;2022-12-20T03:36:04;3.50;84.50
75436;DHT22;64014;53.432;14.534;2022-12-20T03:38:30;3.50;84.40
75436;DHT22;64014;53.432;14.534;2022-12-20T03:40:56;3.50;84.30
75436;DHT22;64014;53.432;14.534;2022-12-20T03:43:21;3.50;84.20
75436;DHT22;64014;53.432;14.534;2022-12-20T03:45:47;3.50;84.00
75436;DHT22;64014;53.432;14.534;2022-12-20T03:48:13;3.50;84.00
75436;DHT22;64014;53.432;14.534;2022-12-20T03:50:39;3.50;84.00
75436;DHT22;64014;53.432;14.534;2022-12-20T03:53:05;3.60;83.90
75436;DHT22;64014;53.432;14.534;2022-12-20T03:55:31;3.60;83.70
75436;DHT22;64014;53.432;14.534;2022-12-20T03:57:57;3.60;83.60
75436;DHT22;64014;53.432;14.534;2022-12-20T04:00:23;3.60;83.50
75436;DHT22;64014;53.432;14.534;2022-12-20T04:02:48;3.60;83.60
75436;DHT22;64014;53.432;14.534;2022-12-20T04:05:14;3.60;83.70
75436;DHT22;64014;53.432;14.534;2022-12-20T04:07:41;3.50;83.70
75436;DHT22;64014;53.432;14.534;2022-12-20T04:10:07;3.50;83.80
75436;DHT22;64014;53.432;14.534;2022-12-20T04:12:33;3.50;83.90
75436;DHT22;64014;53.432;14.534;2022-12-20T04:14:59;3.50;83.80
75436;DHT22;64014;53.432;14.534;2022-12-20T04:17:24;3.60;83.70
75436;DHT22;64014;53.432;14.534;2022-12-20T04:19:50;3.60;83.70
75436;DHT22;64014;53.432;14.534;2022-12-20T04:22:16;3.70;83.60
75436;DHT22;64014;53.432;14.534;2022-12-20T04:24:42;3.70;83.40
75436;DHT22;64014;53.432;14.534;2022-12-20T04:27:07;3.70;83.30
75436;DHT22;64014;53.432;14.534;2022-12-20T04:29:33;3.80;83.30
75436;DHT22;64014;53.432;14.534;2022-12-20T04:31:59;3.90;83.10
75436;DHT22;64014;53.432;14.534;2022-12-20T04:34:25;3.90;83.00
75436;DHT22;64014;53.432;14.534;2022-12-20T04:36:50;3.90;82.80
75436;DHT22;64014;53.432;14.534;2022-12-20T04:39:16;4.00;82.60
75436;DHT22;64014;53.432;14.534;2022-12-20T04:41:42;4.00;82.40
75436;DHT22;64014;53.432;14.534;2022-12-20T04:44:07;4.00;82.40
75436;DHT22;64014;53.432;14.534;2022-12-20T04:46:33;4.00;82.30
75436;DHT22;64014;53.432;14.534;2022-12-20T04:48:59;4.00;82.40
75436;DHT22;64014;53.432;14.534;2022-12-20T04:51:26;4.00;82.30
75436;DHT22;64014;53.432;14.534;2022-12-20T04:53:52;4.00;82.30
75436;DHT22;64014;53.432;14.534;2022-12-20T04:56:23;3.90;82.50
75436;DHT22;64014;53.432;14.534;2022-12-20T04:58:51;3.90;82.50
75436;DHT22;64014;53.432;14.534;2022-12-20T05:01:17;3.90;82.60
75436;DHT22;64014;53.432;14.534;2022-12-20T05:03:44;3.90;82.70
75436;DHT22;64014;53.432;14.534;2022-12-20T05:06:10;3.90;82.80
75436;DHT22;64014;53.432;14.534;2022-12-20T05:08:36;3.90;82.80
75436;DHT22;64014;53.432;14.534;2022-12-20T05:11:03;3.90;82.80
75436;DHT22;64014;53.432;14.534;2022-12-20T05:13:29;3.90;82.80
75436;DHT22;64014;53.432;14.534;2022-12-20T05:15:56;3.90;82.90
75436;DHT22;64014;53.432;14.534;2022-12-20T05:18:23;3.90;82.80
75436;DHT22;64014;53.432;14.534;2022-12-20T05:20:50;3.90;82.80
75436;DHT22;64014;53.432;14.534;2022-12-20T05:23:36;3.90;82.70
75436;DHT22;64014;53.432;14.534;2022-12-20T05:26:20;3.90;82.60
75436;DHT22;64014;53.432;14.534;2022-12-20T05:28:47;3.90;82.70
75436;DHT22;64014;53.432;14.534;2022-12-20T05:31:13;3.90;82.90
75436;DHT22;64014;53.432;14.534;2022-12-20T05:33:39;3.90;83.00
75436;DHT22;64014;53.432;14.534;2022-12-20T05:36:05;3.90;83.00
75436;DHT22;64014;53.432;14.534;2022-12-20T05:38:31;3.90;82.90
75436;DHT22;64014;53.432;14.534;2022-12-20T05:40:57;3.90;83.00
75436;DHT22;64014;53.432;14.534;2022-12-20T05:43:23;3.90;83.00
75436;DHT22;64014;53.432;14.534;2022-12-20T05:45:50;3.90;82.90
75436;DHT22;64014;53.432;14.534;2022-12-20T05:48:17;4.00;82.80
75436;DHT22;64014;53.432;14.534;2022-12-20T05:50:44;4.00;82.60
75436;DHT22;64014;53.432;14.534;2022-12-20T05:53:11;4.10;82.50
75436;DHT22;64014;53.432;14.534;2022-12-20T05:55:40;4.10;82.40
75436;DHT22;64014;53.432;14.534;2022-12-20T05:58:07;4.10;82.30
75436;DHT22;64014;53.432;14.534;2022-12-20T06:00:33;4.10;82.20
75436;DHT22;64014;53.432;14.534;2022-12-20T06:02:59;4.10;82.10
75436;DHT22;64014;53.432;14.534;2022-12-20T06:05:25;4.10;82.10
75436;DHT22;64014;53.432;14.534;2022-12-20T06:07:51;4.20;82.10
75436;DHT22;64014;53.432;14.534;2022-12-20T06:10:17;4.10;82.00
75436;DHT22;64014;53.432;14.534;2022-12-20T06:12:42;4.10;82.10
75436;DHT22;64014;53.432;14.534;2022-12-20T06:15:08;4.10;82.10
75436;DHT22;64014;53.432;14.534;2022-12-20T06:17:35;4.10;82.10
75436;DHT22;64014;53.432;14.534;2022-12-20T06:20:00;4.10;82.30
75436;DHT22;64014;53.432;14.534;2022-12-20T06:22:26;4.10;82.20
75436;DHT22;64014;53.432;14.534;2022-12-20T06:24:52;4.10;82.10
75436;DHT22;64014;53.432;14.534;2022-12-20T06:27:18;4.10;82.00
75436;DHT22;64014;53.432;14.534;2022-12-20T06:29:46;4.20;81.90
75436;DHT22;64014;53.432;14.534;2022-12-20T06:32:16;4.20;81.70
75436;DHT22;64014;53.432;14.534;2022-12-20T06:34:42;4.20;81.70
75436;DHT22;64014;53.432;14.534;2022-12-20T06:37:08;4.20;81.60
75436;DHT22;64014;53.432;14.534;2022-12-20T06:39:34;4.30;81.50
75436;DHT22;64014;53.432;14.534;2022-12-20T06:41:59;4.30;81.50
75436;DHT22;64014;53.432;14.534;2022-12-20T06:44:25;4.30;81.40
75436;DHT22;64014;53.432;14.534;2022-12-20T06:46:51;4.30;81.30
75436;DHT22;64014;53.432;14.534;2022-12-20T06:49:16;4.40;81.30
75436;DHT22;64014;53.432;14.534;2022-12-20T06:51:42;4.40;81.10
75436;DHT22;64014;53.432;14.534;2022-12-20T06:54:08;4.50;81.00
75436;DHT22;64014;53.432;14.534;2022-12-20T06:56:34;4.50;80.80
75436;DHT22;64014;53.432;14.534;2022-12-20T06:58:59;4.50;80.60
75436;DHT22;64014;53.432;14.534;2022-12-20T07:01:25;4.50;80.50
75436;DHT22;64014;53.432;14.534;2022-12-20T07:03:51;4.50;80.30
75436;DHT22;64014;53.432;14.534;2022-12-20T07:06:17;4.50;80.40
75436;DHT22;64014;53.432;14.534;2022-12-20T07:08:42;4.50;80.40
75436;DHT22;64014;53.432;14.534;2022-12-20T07:11:09;4.50;80.50
75436;DHT22;64014;53.432;14.534;2022-12-20T07:13:34;4.50;80.50
75436;DHT22;64014;53.432;14.534;2022-12-20T07:16:01;4.50;80.60
75436;DHT22;64014;53.432;14.534;2022-12-20T07:18:28;4.50;80.50
75436;DHT22;64014;53.432;14.534;2022-12-20T07:20:57;4.50;80.40
75436;DHT22;64014;53.432;14.534;2022-12-20T07:23:23;4.50;80.40
75436;DHT22;64014;53.432;14.534;2022-12-20T07:25:56;4.50;80.40
75436;DHT22;64014;53.432;14.534;2022-12-20T07:28:23;4.50;80.50
75436;DHT22;64014;53.432;14.534;2022-12-20T07:30:49;4.50;80.50
75436;DHT22;64014;53.432;14.534;2022-12-20T07:33:15;4.50;80.50
75436;DHT22;64014;53.432;14.534;2022-12-20T07:35:40;4.50;80.30
75436;DHT22;64014;53.432;14.534;2022-12-20T07:38:08;4.50;80.10
75436;DHT22;64014;53.432;14.534;2022-12-20T07:40:33;4.60;80.00
75436;DHT22;64014;53.432;14.534;2022-12-20T07:42:59;4.60;79.90
75436;DHT22;64014;53.432;14.534;2022-12-20T07:45:25;4.60;79.90
75436;DHT22;64014;53.432;14.534;2022-12-20T07:47:51;4.60;79.90
75436;DHT22;64014;53.432;14.534;2022-12-20T07:50:16;4.60;80.00
75436;DHT22;64014;53.432;14.534;2022-12-20T07:52:44;4.50;80.00
75436;DHT22;64014;53.432;14.534;2022-12-20T07:55:11;4.60;79.90
75436;DHT22;64014;53.432;14.534;2022-12-20T07:57:46;4.50;80.00
75436;DHT22;64014;53.432;14.534;2022-12-20T08:00:14;4.50;79.90
75436;DHT22;64014;53.432;14.534;2022-12-20T08:03:06;4.50;79.90
75436;DHT22;64014;53.432;14.534;2022-12-20T08:05:34;4.50;80.00
75436;DHT22;64014;53.432;14.534;2022-12-20T08:08:04;4.50;80.20
75436;DHT22;64014;53.432;14.534;2022-12-20T08:10:30;4.50;80.20
75436;DHT22;64014;53.432;14.534;2022-12-20T08:12:57;4.50;80.00
75436;DHT22;64014;53.432;14.534;2022-12-20T08:15:24;4.50;79.70
75436;DHT22;64014;53.432;14.534;2022-12-20T08:17:50;4.60;79.70
75436;DHT22;64014;53.432;14.534;2022-12-20T08:20:16;4.70;79.60
75436;DHT22;64014;53.432;14.534;2022-12-20T08:22:42;4.70;79.60
75436;DHT22;64014;53.432;14.534;2022-12-20T08:25:08;4.70;79.50
75436;DHT22;64014;53.432;14.534;2022-12-20T08:27:34;4.70;79.50
75436;DHT22;64014;53.432;14.534;2022-12-20T08:29:59;4.70;79.40
75436;DHT22;64014;53.432;14.534;2022-12-20T08:32:25;4.80;79.30
75436;DHT22;64014;53.432;14.534;2022-12-20T08:34:52;4.90;79.20
75436;DHT22;64014;53.432;14.534;2022-12-20T08:37:18;4.90;79.00
75436;DHT22;64014;53.432;14.534;2022-12-20T08:39:44;5.00;78.90
75436;DHT22;64014;53.432;14.534;2022-12-20T08:42:10;5.00;78.70
75436;DHT22;64014;53.432;14.534;2022-12-20T08:44:36;5.00;78.80
75436;DHT22;64014;53.432;14.534;2022-12-20T08:47:02;5.00;78.80
75436;DHT22;64014;53.432;14.534;2022-12-20T08:49:27;5.00;78.90
75436;DHT22;64014;53.432;14.534;2022-12-20T08:51:53;5.00;79.00
75436;DHT22;64014;53.432;14.534;2022-12-20T08:54:19;5.00;78.80
75436;DHT22;64014;53.432;14.534;2022-12-20T08:56:44;5.00;78.90
75436;DHT22;64014;53.432;14.534;2022-12-20T08:59:10;5.00;79.00
75436;DHT22;64014;53.432;14.534;2022-12-20T09:01:36;5.00;79.10
75436;DHT22;64014;53.432;14.534;2022-12-20T09:04:03;5.00;79.20
75436;DHT22;64014;53.432;14.534;2022-12-20T09:06:29;5.00;79.30
75436;DHT22;64014;53.432;14.534;2022-12-20T09:08:55;5.10;79.40
75436;DHT22;64014;53.432;14.534;2022-12-20T09:11:23;5.00;79.60
75436;DHT22;64014;53.432;14.534;2022-12-20T09:13:52;5.00;79.80
75436;DHT22;64014;53.432;14.534;2022-12-20T09:16:25;5.10;79.80
75436;DHT22;64014;53.432;14.534;2022-12-20T09:18:53;5.10;79.90
75436;DHT22;64014;53.432;14.534;2022-12-20T09:21:19;5.10;80.00
75436;DHT22;64014;53.432;14.534;2022-12-20T09:23:45;5.20;80.10
75436;DHT22;64014;53.432;14.534;2022-12-20T09:26:13;5.20;80.20
75436;DHT22;64014;53.432;14.534;2022-12-20T09:28:40;5.30;80.30
75436;DHT22;64014;53.432;14.534;2022-12-20T09:31:09;5.30;80.40
75436;DHT22;64014;53.432;14.534;2022-12-20T09:33:36;5.40;80.30
75436;DHT22;64014;53.432;14.534;2022-12-20T09:36:02;5.50;80.30
75436;DHT22;64014;53.432;14.534;2022-12-20T09:38:29;5.50;80.30
75436;DHT22;64014;53.432;14.534;2022-12-20T09:41:00;5.50;80.20
75436;DHT22;64014;53.432;14.534;2022-12-20T09:43:27;5.50;80.40
75436;DHT22;64014;53.432;14.534;2022-12-20T09:45:55;5.50;80.40
75436;DHT22;64014;53.432;14.534;2022-12-20T09:48:29;5.50;80.70
75436;DHT22;64014;53.432;14.534;2022-12-20T09:56:57;5.80;80.70
75436;DHT22;64014;53.432;14.534;2022-12-20T09:59:24;5.80;80.50
75436;DHT22;64014;53.432;14.534;2022-12-20T10:01:50;5.80;80.60
75436;DHT22;64014;53.432;14.534;2022-12-20T10:04:24;5.70;80.90
75436;DHT22;64014;53.432;14.534;2022-12-20T10:07:32;5.60;81.30
75436;DHT22;64014;53.432;14.534;2022-12-20T10:10:28;5.60;81.70
75436;DHT22;64014;53.432;14.534;2022-12-20T10:13:01;5.60;82.00
75436;DHT22;64014;53.432;14.534;2022-12-20T10:15:37;5.60;82.30
75436;DHT22;64014;53.432;14.534;2022-12-20T10:20:58;5.60;82.60
75436;DHT22;64014;53.432;14.534;2022-12-20T10:23:41;5.60;82.80
75436;DHT22;64014;53.432;14.534;2022-12-20T10:26:11;5.60;82.90
75436;DHT22;64014;53.432;14.534;2022-12-20T10:28:37;5.70;82.90
75436;DHT22;64014;53.432;14.534;2022-12-20T10:31:10;5.70;83.00
75436;DHT22;64014;53.432;14.534;2022-12-20T10:33:37;5.70;83.00
75436;DHT22;64014;53.432;14.534;2022-12-20T10:38:50;5.80;83.30
75436;DHT22;64014;53.432;14.534;2022-12-20T10:41:21;5.70;83.30
75436;DHT22;64014;53.432;14.534;2022-12-20T10:46:20;5.70;83.70
75436;DHT22;64014;53.432;14.534;2022-12-20T10:48:47;5.70;84.00
75436;DHT22;64014;53.432;14.534;2022-12-20T10:51:20;5.80;84.00
75436;DHT22;64014;53.432;14.534;2022-12-20T10:56:25;5.80;84.20
75436;DHT22;64014;53.432;14.534;2022-12-20T10:59:04;5.80;84.30
75436;DHT22;64014;53.432;14.534;2022-12-20T11:01:48;5.80;84.30
75436;DHT22;64014;53.432;14.534;2022-12-20T11:04:34;5.80;84.40
75436;DHT22;64014;53.432;14.534;2022-12-20T11:07:01;5.80;84.50
75436;DHT22;64014;53.432;14.534;2022-12-20T11:09:36;5.80;84.50
75436;DHT22;64014;53.432;14.534;2022-12-20T11:12:11;5.90;84.40
75436;DHT22;64014;53.432;14.534;2022-12-20T11:14:38;5.90;84.40
75436;DHT22;64014;53.432;14.534;2022-12-20T11:22:55;6.10;84.30
75436;DHT22;64014;53.432;14.534;2022-12-20T11:31:22;6.30;84.00
75436;DHT22;64014;53.432;14.534;2022-12-20T11:45:01;6.40;84.20
75436;DHT22;64014;53.432;14.534;2022-12-20T11:47:43;6.40;84.40
75436;DHT22;64014;53.432;14.534;2022-12-20T11:56:17;6.50;84.30
75436;DHT22;64014;53.432;14.534;2022-12-20T11:58:50;6.50;84.30
75436;DHT22;64014;53.432;14.534;2022-12-20T12:01:19;6.50;84.50
75436;DHT22;64014;53.432;14.534;2022-12-20T12:04:12;6.60;84.30
75436;DHT22;64014;53.432;14.534;2022-12-20T12:06:45;6.60;84.20
75436;DHT22;64014;53.432;14.534;2022-12-20T12:09:34;6.70;84.20
75436;DHT22;64014;53.432;14.534;2022-12-20T12:12:24;6.70;84.20
75436;DHT22;64014;53.432;14.534;2022-12-20T12:15:21;6.80;84.00
75436;DHT22;64014;53.432;14.534;2022-12-20T12:17:57;6.80;83.90
75436;DHT22;64014;53.432;14.534;2022-12-20T12:23:31;6.80;83.90
75436;DHT22;64014;53.432;14.534;2022-12-20T12:26:05;6.90;83.90
75436;DHT22;64014;53.432;14.534;2022-12-20T12:28:34;6.90;83.70
75436;DHT22;64014;53.432;14.534;2022-12-20T12:31:07;6.90;83.60
75436;DHT22;64014;53.432;14.534;2022-12-20T12:34:02;6.90;83.50
75436;DHT22;64014;53.432;14.534;2022-12-20T12:39:02;6.90;83.60
75436;DHT22;64014;53.432;14.534;2022-12-20T12:47:21;6.90;83.80
75436;DHT22;64014;53.432;14.534;2022-12-20T12:49:50;6.90;83.70
75436;DHT22;64014;53.432;14.534;2022-12-20T12:52:39;7.00;83.70
75436;DHT22;64014;53.432;14.534;2022-12-20T13:00:56;6.90;83.70
75436;DHT22;64014;53.432;14.534;2022-12-20T13:03:41;7.00;83.70
75436;DHT22;64014;53.432;14.534;2022-12-20T13:21:58;6.80;84.30
75436;DHT22;64014;53.432;14.534;2022-12-20T13:27:40;6.90;84.30
75436;DHT22;64014;53.432;14.534;2022-12-20T13:38:47;6.90;84.30
75436;DHT22;64014;53.432;14.534;2022-12-20T13:41:34;6.90;84.30
75436;DHT22;64014;53.432;14.534;2022-12-20T13:44:23;6.90;84.30
75436;DHT22;64014;53.432;14.534;2022-12-20T13:47:06;6.90;84.40
75436;DHT22;64014;53.432;14.534;2022-12-20T13:49:39;6.90;84.40
75436;DHT22;64014;53.432;14.534;2022-12-20T13:54:48;6.80;84.50
75436;DHT22;64014;53.432;14.534;2022-12-20T13:57:41;6.90;84.60
75436;DHT22;64014;53.432;14.534;2022-12-20T14:00:21;7.00;84.20
75436;DHT22;64014;53.432;14.534;2022-12-20T14:02:47;7.00;83.90
75436;DHT22;64014;53.432;14.534;2022-12-20T14:05:17;7.00;83.80
75436;DHT22;64014;53.432;14.534;2022-12-20T14:07:47;6.90;83.90
75436;DHT22;64014;53.432;14.534;2022-12-20T14:10:22;6.90;84.00
75436;DHT22;64014;53.432;14.534;2022-12-20T14:12:50;6.90;84.00
75436;DHT22;64014;53.432;14.534;2022-12-20T14:15:29;6.90;84.00
75436;DHT22;64014;53.432;14.534;2022-12-20T14:17:55;6.90;84.00
75436;DHT22;64014;53.432;14.534;2022-12-20T14:20:28;6.90;83.90
75436;DHT22;64014;53.432;14.534;2022-12-20T14:23:04;6.90;83.80
75436;DHT22;64014;53.432;14.534;2022-12-20T14:25:56;6.90;83.70
75436;DHT22;64014;53.432;14.534;2022-12-20T14:30:57;6.90;83.50
75436;DHT22;64014;53.432;14.534;2022-12-20T14:33:41;6.90;83.40
75436;DHT22;64014;53.432;14.534;2022-12-20T14:36:18;6.80;83.30
75436;DHT22;64014;53.432;14.534;2022-12-20T14:38:46;6.80;83.30
75436;DHT22;64014;53.432;14.534;2022-12-20T14:43:58;6.80;83.30
75436;DHT22;64014;53.432;14.534;2022-12-20T14:46:25;6.70;83.30
75436;DHT22;64014;53.432;14.534;2022-12-20T14:51:37;6.70;83.40
75436;DHT22;64014;53.432;14.534;2022-12-20T14:54:03;6.70;83.40
75436;DHT22;64014;53.432;14.534;2022-12-20T14:56:30;6.60;83.50
75436;DHT22;64014;53.432;14.534;2022-12-20T14:59:16;6.60;83.40
75436;DHT22;64014;53.432;14.534;2022-12-20T15:01:42;6.60;83.40
75436;DHT22;64014;53.432;14.534;2022-12-20T15:04:34;6.60;83.40
75436;DHT22;64014;53.432;14.534;2022-12-20T15:07:01;6.60;83.40
75436;DHT22;64014;53.432;14.534;2022-12-20T15:09:27;6.60;83.20
75436;DHT22;64014;53.432;14.534;2022-12-20T15:11:55;6.60;83.20
75436;DHT22;64014;53.432;14.534;2022-12-20T15:14:27;6.60;83.20
75436;DHT22;64014;53.432;14.534;2022-12-20T15:16:55;6.60;83.00
75436;DHT22;64014;53.432;14.534;2022-12-20T15:19:21;6.60;82.90
75436;DHT22;64014;53.432;14.534;2022-12-20T15:21:47;6.60;82.90
75436;DHT22;64014;53.432;14.534;2022-12-20T15:24:22;6.60;82.80
75436;DHT22;64014;53.432;14.534;2022-12-20T15:26:49;6.60;82.80
75436;DHT22;64014;53.432;14.534;2022-12-20T15:29:16;6.60;82.80
75436;DHT22;64014;53.432;14.534;2022-12-20T15:31:43;6.50;82.80
75436;DHT22;64014;53.432;14.534;2022-12-20T15:34:27;6.50;82.80
75436;DHT22;64014;53.432;14.534;2022-12-20T15:36:55;6.50;82.80
75436;DHT22;64014;53.432;14.534;2022-12-20T15:39:25;6.40;82.90
75436;DHT22;64014;53.432;14.534;2022-12-20T15:41:51;6.40;83.00
75436;DHT22;64014;53.432;14.534;2022-12-20T15:44:22;6.40;83.00
75436;DHT22;64014;53.432;14.534;2022-12-20T15:46:49;6.40;83.00
75436;DHT22;64014;53.432;14.534;2022-12-20T15:49:18;6.40;82.90
75436;DHT22;64014;53.432;14.534;2022-12-20T15:51:47;6.30;82.90
75436;DHT22;64014;53.432;14.534;2022-12-20T15:54:25;6.30;83.00
75436;DHT22;64014;53.432;14.534;2022-12-20T15:56:53;6.20;83.20
75436;DHT22;64014;53.432;14.534;2022-12-20T15:59:19;6.10;83.30
75436;DHT22;64014;53.432;14.534;2022-12-20T16:01:44;6.20;83.40
75436;DHT22;64014;53.432;14.534;2022-12-20T16:04:14;6.10;83.40
75436;DHT22;64014;53.432;14.534;2022-12-20T16:06:41;6.10;83.30
75436;DHT22;64014;53.432;14.534;2022-12-20T16:09:08;6.10;83.20
75436;DHT22;64014;53.432;14.534;2022-12-20T16:11:34;6.20;83.00
75436;DHT22;64014;53.432;14.534;2022-12-20T16:14:00;6.20;82.70
75436;DHT22;64014;53.432;14.534;2022-12-20T16:16:29;6.20;82.50
75436;DHT22;64014;53.432;14.534;2022-12-20T16:18:54;6.20;82.30
75436;DHT22;64014;53.432;14.534;2022-12-20T16:21:21;6.20;81.90
75436;DHT22;64014;53.432;14.534;2022-12-20T16:23:47;6.20;81.70
75436;DHT22;64014;53.432;14.534;2022-12-20T16:26:17;6.20;81.50
75436;DHT22;64014;53.432;14.534;2022-12-20T16:28:44;6.20;81.40
75436;DHT22;64014;53.432;14.534;2022-12-20T16:31:33;6.20;81.10
75436;DHT22;64014;53.432;14.534;2022-12-20T16:34:01;6.20;81.00
75436;DHT22;64014;53.432;14.534;2022-12-20T16:36:27;6.20;80.80
75436;DHT22;64014;53.432;14.534;2022-12-20T16:38:54;6.20;80.80
75436;DHT22;64014;53.432;14.534;2022-12-20T16:41:28;6.10;80.70
75436;DHT22;64014;53.432;14.534;2022-12-20T16:43:56;6.10;80.70
75436;DHT22;64014;53.432;14.534;2022-12-20T16:46:24;6.10;80.80
75436;DHT22;64014;53.432;14.534;2022-12-20T16:48:55;6.10;80.70
75436;DHT22;64014;53.432;14.534;2022-12-20T16:51:30;6.00;80.70
75436;DHT22;64014;53.432;14.534;2022-12-20T16:53:57;6.00;80.70
75436;DHT22;64014;53.432;14.534;2022-12-20T16:56:23;6.00;80.50
75436;DHT22;64014;53.432;14.534;2022-12-20T16:58:49;6.00;80.60
75436;DHT22;64014;53.432;14.534;2022-12-20T17:01:23;5.90;80.50
75436;DHT22;64014;53.432;14.534;2022-12-20T17:03:51;5.90;80.50
75436;DHT22;64014;53.432;14.534;2022-12-20T17:06:17;5.90;80.40
75436;DHT22;64014;53.432;14.534;2022-12-20T17:08:44;5.90;80.30
75436;DHT22;64014;53.432;14.534;2022-12-20T17:11:25;5.90;80.30
75436;DHT22;64014;53.432;14.534;2022-12-20T17:13:53;5.80;80.30
75436;DHT22;64014;53.432;14.534;2022-12-20T17:16:20;5.90;80.30
75436;DHT22;64014;53.432;14.534;2022-12-20T17:18:47;5.90;80.20
75436;DHT22;64014;53.432;14.534;2022-12-20T17:21:41;5.90;80.10
75436;DHT22;64014;53.432;14.534;2022-12-20T17:24:18;5.90;79.80
75436;DHT22;64014;53.432;14.534;2022-12-20T17:26:44;5.90;79.60
75436;DHT22;64014;53.432;14.534;2022-12-20T17:29:11;5.90;79.50
75436;DHT22;64014;53.432;14.534;2022-12-20T17:31:39;6.00;79.00
75436;DHT22;64014;53.432;14.534;2022-12-20T17:36:50;5.90;78.60
75436;DHT22;64014;53.432;14.534;2022-12-20T17:39:16;5.80;78.60
75436;DHT22;64014;53.432;14.534;2022-12-20T17:41:42;5.70;78.60
75436;DHT22;64014;53.432;14.534;2022-12-20T17:44:28;5.60;78.80
75436;DHT22;64014;53.432;14.534;2022-12-20T17:46:55;5.50;78.60
75436;DHT22;64014;53.432;14.534;2022-12-20T17:49:22;5.50;78.80